Uraga Maru — JD2163 — position and weather

sailwx.info

Track history (hours):
 
Tides and Currents Weather Stations Pressure Air Temp Water Temp Dewpoint Dewpoint Depression Visibility Wind Speed Wind Dir Waves Ship Positions

Uraga Maru

Last reported at 2016-May-05 07:31 UTC. Time now 2016-May-05 08:30 UTC.
Position N 35°17' E 139°41'.

Length 40 m; draft 2.8 m.

Type: Tug. MMSI: 431101119.

Date/timePositionNaut miles runAvg speedWind from/ knotsBaromVisibWave heightAir tempDewpointWater temp
2016-May-05 07:31N 35°17' E 139°41'0 0.0
2016-May-05 06:23N 35°17' E 139°41'0 0.0
2016-May-05 05:19N 35°17' E 139°41'0 0.0
2016-May-05 04:29N 35°17' E 139°41'0 0.1
2016-May-05 02:31N 35°17' E 139°41'8 7.9
2016-May-05 01:33N 35°24' E 139°45'9 8.8
2016-May-05 00:33N 35°15' E 139°47'3 3.0
2016-May-04 23:33N 35°12' E 139°46'4 3.8
2016-May-04 22:33N 35°16' E 139°45'1 1.1
2016-May-04 21:33N 35°17' E 139°46'5 4.7
2016-May-04 20:33N 35°12' E 139°46'7 6.6
2016-May-04 19:33N 35°17' E 139°41'0 0.0
2016-May-04 18:33N 35°17' E 139°41'0 0.0
2016-May-04 17:33N 35°17' E 139°41'0 0.0
2016-May-04 16:33N 35°17' E 139°41'0 0.0
2016-May-04 15:33N 35°17' E 139°41'0 0.0
2016-May-04 14:33N 35°17' E 139°41'0 0.0
2016-May-04 13:33N 35°17' E 139°41'0 0.0
2016-May-04 12:33N 35°17' E 139°41'0 0.0
2016-May-04 11:32N 35°17' E 139°41'0 0.0
2016-May-04 10:33N 35°17' E 139°41'0 0.0
2016-May-04 09:33N 35°17' E 139°41'0 0.0
2016-May-04 08:33N 35°17' E 139°41'0 0.0
2016-May-04 07:32N 35°17' E 139°41'0 0.0
2016-May-04 06:32N 35°17' E 139°41'0 0.0
2016-May-04 05:31N 35°17' E 139°41'0 0.0
2016-May-04 04:32N 35°17' E 139°41'0 0.0
2016-May-04 03:33N 35°17' E 139°41'0 0.0
2016-May-04 02:33N 35°17' E 139°41'0 0.0
2016-May-04 01:31N 35°17' E 139°41'0 0.0
2016-May-04 00:31N 35°17' E 139°41'0 0.0
2016-May-03 23:20N 35°17' E 139°41'0 0.0
2016-May-03 22:27N 35°17' E 139°41'0 0.0
2016-May-03 21:29N 35°17' E 139°41'0 0.0
2016-May-03 20:07N 35°17' E 139°41'0 0.0
2016-May-03 19:33N 35°17' E 139°41'0 0.0
2016-May-03 18:31N 35°17' E 139°41'0 0.0
2016-May-03 17:33N 35°17' E 139°41'0 0.0
2016-May-03 16:32N 35°17' E 139°41'0 0.0
2016-May-03 14:05N 35°17' E 139°41'0 0.0
2016-May-03 13:32N 35°17' E 139°41'0 0.0
2016-May-03 12:33N 35°17' E 139°41'0 0.0
2016-May-03 11:33N 35°17' E 139°41'0 0.0
2016-May-03 10:32N 35°17' E 139°41'0 0.0
2016-May-03 09:33N 35°17' E 139°41'0 0.0
2016-May-03 08:31N 35°17' E 139°41'0 0.0
2016-May-03 07:33N 35°17' E 139°41'0 0.0
2016-May-03 06:33N 35°17' E 139°41'6 5.8
2016-May-03 05:32N 35°14' E 139°46'1211.9
2016-May-03 04:34N 35°25' E 139°43'3 3.1
2016-May-03 03:34N 35°28' E 139°44'6 5.5
2016-May-03 02:34N 35°23' E 139°42'1110.9
2016-May-03 01:33N 35°13' E 139°47'3 2.8
2016-May-03 00:29N 35°16' E 139°46'4 4.7
2016-May-02 23:33N 35°17' E 139°41'0 0.0
2016-May-02 22:31N 35°17' E 139°41'0 0.0
2016-May-02 14:05N 35°17' E 139°41'0 0.0
2016-May-02 13:32N 35°17' E 139°41'0 0.0
2016-May-02 09:32N 35°17' E 139°41'0 0.0
2016-May-02 08:33N 35°17' E 139°41'0 0.0
2016-May-02 07:34N 35°17' E 139°41'0 0.0
2016-May-02 06:34N 35°17' E 139°41'0 0.0
2016-May-02 05:33N 35°17' E 139°41'0 0.0
2016-May-02 04:34N 35°17' E 139°41'0 0.0
2016-May-02 03:34N 35°17' E 139°41'0 0.0
2016-May-02 02:34N 35°17' E 139°41'0 0.0
2016-May-02 01:33N 35°17' E 139°41'2 2.1
2016-May-02 00:32N 35°19' E 139°42'3 3.4
2016-May-01 23:34N 35°21' E 139°45'1211.6
2016-May-01 22:33N 35°10' E 139°46'8 8.2
2016-May-01 21:33N 35°17' E 139°43'2 2.2
2016-May-01 20:34N 35°19' E 139°42'9 8.8
2016-May-01 19:32N 35°11' E 139°47'4 1.5
2016-May-01 17:05N 35°13' E 139°43'3 5.4
2016-May-01 16:33N 35°14' E 139°46'1110.7
2016-May-01 15:33N 35°23' E 139°41'1 0.8
2016-May-01 14:33N 35°23' E 139°40'0 0.0
2016-May-01 13:33N 35°23' E 139°40'4 3.9
2016-May-01 12:34N 35°20' E 139°42'5 4.8
2016-May-01 11:33N 35°16' E 139°46'1010.0
2016-May-01 10:33N 35°26' E 139°46'9 9.4
2016-May-01 09:33N 35°31' E 139°56'2 1.8
2016-May-01 08:33N 35°29' E 139°55'1111.4
2016-May-01 07:34N 35°21' E 139°45'5 5.1
2016-May-01 06:32N 35°17' E 139°41'0 0.0
2016-May-01 05:33N 35°17' E 139°41'0 0.0
2016-May-01 04:30N 35°17' E 139°41'0 0.0
2016-May-01 03:31N 35°17' E 139°41'0 0.0
2016-May-01 02:31N 35°17' E 139°41'0 0.0
2016-May-01 01:32N 35°17' E 139°41'2 2.4
2016-May-01 00:33N 35°19' E 139°39'2 2.4
2016-Apr-30 23:33N 35°17' E 139°41'0 0.0
2016-Apr-30 22:31N 35°17' E 139°41'0 0.0
2016-Apr-30 21:32N 35°17' E 139°41'0 0.0
2016-Apr-30 19:32N 35°17' E 139°41'0 0.0
2016-Apr-30 18:33N 35°17' E 139°41'0 0.0
2016-Apr-30 17:32N 35°17' E 139°41'0 0.0
2016-Apr-30 16:12N 35°17' E 139°41'0 0.0
2016-Apr-30 15:31N 35°17' E 139°41'0 0.0
2016-Apr-30 14:19N 35°17' E 139°41'0 0.0
2016-Apr-30 13:31N 35°17' E 139°41'0 0.0
2016-Apr-30 12:29N 35°17' E 139°41'0 0.0
2016-Apr-30 11:29N 35°17' E 139°41'0 0.0
2016-Apr-30 10:23N 35°17' E 139°41'0 0.0
2016-Apr-30 08:24N 35°17' E 139°41'0 0.0
2016-Apr-30 07:23N 35°17' E 139°41'0 0.0
2016-Apr-30 03:32N 35°17' E 139°41'1 0.8
2016-Apr-30 02:33N 35°18' E 139°41'9 9.3
2016-Apr-30 01:33N 35°25' E 139°49'2 2.3
2016-Apr-30 00:33N 35°27' E 139°50'1111.1
2016-Apr-29 23:33N 35°16' E 139°46'7 6.4
2016-Apr-29 22:31N 35°10' E 139°46'10 9.6
2016-Apr-29 21:31N 35°19' E 139°43'4 3.9
2016-Apr-29 20:33N 35°22' E 139°45'1211.5
2016-Apr-29 19:33N 35°11' E 139°47'4 0.4
2016-Apr-29 10:14N 35°13' E 139°43'3 4.7
2016-Apr-29 09:32N 35°15' E 139°46'9 9.7
2016-Apr-29 08:33N 35°23' E 139°40'6 1.2
2016-Apr-29 03:33N 35°17' E 139°43'2 2.1
2016-Apr-29 02:22N 35°16' E 139°46'1012.0
2016-Apr-29 01:33N 35°26' E 139°42'3 2.9
2016-Apr-29 00:33N 35°23' E 139°42'6 5.7
2016-Apr-28 23:33N 35°17' E 139°41'0 0.0
2016-Apr-28 22:33N 35°17' E 139°41'0 0.0
2016-Apr-28 21:28N 35°17' E 139°41'0 0.0
2016-Apr-28 20:25N 35°17' E 139°41'0 0.0
2016-Apr-28 07:30N 35°17' E 139°41'0 0.0
2016-Apr-28 06:07N 35°17' E 139°41'0 0.0
2016-Apr-28 05:30N 35°17' E 139°41'0 0.0
2016-Apr-28 03:23N 35°17' E 139°41'0 0.0
2016-Apr-28 02:29N 35°17' E 139°41'0 0.0
2016-Apr-28 01:24N 35°17' E 139°41'0 0.0
2016-Apr-27 23:29N 35°17' E 139°41'0 0.3
2016-Apr-27 22:33N 35°17' E 139°41'6 6.3
2016-Apr-27 21:33N 35°13' E 139°47'3 3.3
2016-Apr-27 20:33N 35°16' E 139°45'4 3.8
2016-Apr-27 19:33N 35°17' E 139°41'0 0.0
2016-Apr-27 18:32N 35°17' E 139°41'0 0.0
2016-Apr-27 17:33N 35°17' E 139°41'0 0.0
2016-Apr-27 16:34N 35°17' E 139°41'0 0.0
2016-Apr-27 15:34N 35°17' E 139°41'0 0.0
2016-Apr-27 14:33N 35°17' E 139°41'0 0.0
2016-Apr-27 13:33N 35°17' E 139°41'0 0.0
2016-Apr-27 12:33N 35°17' E 139°41'0 0.0
2016-Apr-27 11:33N 35°17' E 139°41'0 0.0
2016-Apr-27 10:31N 35°17' E 139°41'2 1.7
2016-Apr-27 09:33N 35°18' E 139°42'8 8.3
2016-Apr-27 08:33N 35°24' E 139°49'1211.5
2016-Apr-27 07:33N 35°32' E 139°60'5 4.7
2016-Apr-27 06:33N 35°33' E 140°06'18 6.0
2016-Apr-27 03:33N 35°24' E 139°46'1111.3
2016-Apr-27 02:33N 35°13' E 139°47'3 2.8
2016-Apr-27 01:32N 35°15' E 139°46'4 2.0
2016-Apr-26 23:17N 35°17' E 139°41'0 0.0
2016-Apr-26 22:31N 35°17' E 139°41'0 0.0
2016-Apr-26 21:32N 35°17' E 139°41'0 0.0
2016-Apr-26 20:31N 35°17' E 139°41'0 0.0
2016-Apr-26 18:26N 35°17' E 139°41'0 0.0
2016-Apr-26 11:31N 35°17' E 139°41'0 0.0
2016-Apr-26 10:24N 35°17' E 139°41'0 0.0
2016-Apr-26 09:32N 35°17' E 139°41'0 0.0
2016-Apr-26 08:33N 35°17' E 139°41'0 0.0
2016-Apr-26 07:33N 35°17' E 139°41'0 0.0
2016-Apr-26 06:31N 35°17' E 139°41'0 0.0
2016-Apr-26 05:33N 35°17' E 139°41'0 0.0
2016-Apr-26 04:33N 35°17' E 139°41'0 0.0
2016-Apr-26 03:32N 35°17' E 139°41'0 0.0
2016-Apr-26 02:33N 35°17' E 139°41'0 0.0
2016-Apr-26 01:33N 35°17' E 139°41'7 7.4
2016-Apr-26 00:33N 35°24' E 139°42'9 8.6
2016-Apr-25 23:33N 35°16' E 139°46'4 4.4
2016-Apr-25 22:32N 35°12' E 139°47'3 3.3
2016-Apr-25 21:33N 35°13' E 139°43'4 3.6
2016-Apr-25 20:33N 35°16' E 139°46'8 8.5
2016-Apr-25 19:33N 35°24' E 139°41'5 5.3
2016-Apr-25 18:33N 35°18' E 139°42'1 1.4
2016-Apr-25 17:29N 35°17' E 139°41'0 0.0
2016-Apr-25 10:27N 35°17' E 139°41'6 7.1
2016-Apr-25 09:33N 35°13' E 139°46'1212.5
2016-Apr-25 08:34N 35°25' E 139°43'2 2.4
2016-Apr-25 07:33N 35°27' E 139°42'  
Track history (hours):
 
Tides and Currents Weather Stations Pressure Air Temp Water Temp Dewpoint Dewpoint Depression Visibility Wind Speed Wind Dir Waves Ship Positions

Uraga Maru

Last reported at 2016-May-05 07:31 UTC. Time now 2016-May-05 08:30 UTC.
Position N 35°17' E 139°41'.

Length 40 m; draft 2.8 m.

Type: Tug. MMSI: 431101119.

Date/timePositionNaut miles runAvg speedWind from/ knotsBaromVisibWave heightAir tempDewpointWater temp
2016-May-05 07:31N 35°17' E 139°41'0 0.0
2016-May-05 06:23N 35°17' E 139°41'0 0.0
2016-May-05 05:19N 35°17' E 139°41'0 0.0
2016-May-05 04:29N 35°17' E 139°41'0 0.1
2016-May-05 02:31N 35°17' E 139°41'8 7.9
2016-May-05 01:33N 35°24' E 139°45'9 8.8
2016-May-05 00:33N 35°15' E 139°47'3 3.0
2016-May-04 23:33N 35°12' E 139°46'4 3.8
2016-May-04 22:33N 35°16' E 139°45'1 1.1
2016-May-04 21:33N 35°17' E 139°46'5 4.7
2016-May-04 20:33N 35°12' E 139°46'7 6.6
2016-May-04 19:33N 35°17' E 139°41'0 0.0
2016-May-04 18:33N 35°17' E 139°41'0 0.0
2016-May-04 17:33N 35°17' E 139°41'0 0.0
2016-May-04 16:33N 35°17' E 139°41'0 0.0
2016-May-04 15:33N 35°17' E 139°41'0 0.0
2016-May-04 14:33N 35°17' E 139°41'0 0.0
2016-May-04 13:33N 35°17' E 139°41'0 0.0
2016-May-04 12:33N 35°17' E 139°41'0 0.0
2016-May-04 11:32N 35°17' E 139°41'0 0.0
2016-May-04 10:33N 35°17' E 139°41'0 0.0
2016-May-04 09:33N 35°17' E 139°41'0 0.0
2016-May-04 08:33N 35°17' E 139°41'0 0.0
2016-May-04 07:32N 35°17' E 139°41'0 0.0
2016-May-04 06:32N 35°17' E 139°41'0 0.0
2016-May-04 05:31N 35°17' E 139°41'0 0.0
2016-May-04 04:32N 35°17' E 139°41'0 0.0
2016-May-04 03:33N 35°17' E 139°41'0 0.0
2016-May-04 02:33N 35°17' E 139°41'0 0.0
2016-May-04 01:31N 35°17' E 139°41'0 0.0
2016-May-04 00:31N 35°17' E 139°41'0 0.0
2016-May-03 23:20N 35°17' E 139°41'0 0.0
2016-May-03 22:27N 35°17' E 139°41'0 0.0
2016-May-03 21:29N 35°17' E 139°41'0 0.0
2016-May-03 20:07N 35°17' E 139°41'0 0.0
2016-May-03 19:33N 35°17' E 139°41'0 0.0
2016-May-03 18:31N 35°17' E 139°41'0 0.0
2016-May-03 17:33N 35°17' E 139°41'0 0.0
2016-May-03 16:32N 35°17' E 139°41'0 0.0
2016-May-03 14:05N 35°17' E 139°41'0 0.0
2016-May-03 13:32N 35°17' E 139°41'0 0.0
2016-May-03 12:33N 35°17' E 139°41'0 0.0
2016-May-03 11:33N 35°17' E 139°41'0 0.0
2016-May-03 10:32N 35°17' E 139°41'0 0.0
2016-May-03 09:33N 35°17' E 139°41'0 0.0
2016-May-03 08:31N 35°17' E 139°41'0 0.0
2016-May-03 07:33N 35°17' E 139°41'0 0.0
2016-May-03 06:33N 35°17' E 139°41'6 5.8
2016-May-03 05:32N 35°14' E 139°46'1211.9
2016-May-03 04:34N 35°25' E 139°43'3 3.1
2016-May-03 03:34N 35°28' E 139°44'6 5.5
2016-May-03 02:34N 35°23' E 139°42'1110.9
2016-May-03 01:33N 35°13' E 139°47'3 2.8
2016-May-03 00:29N 35°16' E 139°46'4 4.7
2016-May-02 23:33N 35°17' E 139°41'0 0.0
2016-May-02 22:31N 35°17' E 139°41'0 0.0
2016-May-02 14:05N 35°17' E 139°41'0 0.0
2016-May-02 13:32N 35°17' E 139°41'0 0.0
2016-May-02 09:32N 35°17' E 139°41'0 0.0
2016-May-02 08:33N 35°17' E 139°41'0 0.0
2016-May-02 07:34N 35°17' E 139°41'0 0.0
2016-May-02 06:34N 35°17' E 139°41'0 0.0
2016-May-02 05:33N 35°17' E 139°41'0 0.0
2016-May-02 04:34N 35°17' E 139°41'0 0.0
2016-May-02 03:34N 35°17' E 139°41'0 0.0
2016-May-02 02:34N 35°17' E 139°41'0 0.0
2016-May-02 01:33N 35°17' E 139°41'2 2.1
2016-May-02 00:32N 35°19' E 139°42'3 3.4
2016-May-01 23:34N 35°21' E 139°45'1211.6
2016-May-01 22:33N 35°10' E 139°46'8 8.2
2016-May-01 21:33N 35°17' E 139°43'2 2.2
2016-May-01 20:34N 35°19' E 139°42'9 8.8
2016-May-01 19:32N 35°11' E 139°47'4 1.5
2016-May-01 17:05N 35°13' E 139°43'3 5.4
2016-May-01 16:33N 35°14' E 139°46'1110.7
2016-May-01 15:33N 35°23' E 139°41'1 0.8
2016-May-01 14:33N 35°23' E 139°40'0 0.0
2016-May-01 13:33N 35°23' E 139°40'4 3.9
2016-May-01 12:34N 35°20' E 139°42'5 4.8
2016-May-01 11:33N 35°16' E 139°46'1010.0
2016-May-01 10:33N 35°26' E 139°46'9 9.4
2016-May-01 09:33N 35°31' E 139°56'2 1.8
2016-May-01 08:33N 35°29' E 139°55'1111.4
2016-May-01 07:34N 35°21' E 139°45'5 5.1
2016-May-01 06:32N 35°17' E 139°41'0 0.0
2016-May-01 05:33N 35°17' E 139°41'0 0.0
2016-May-01 04:30N 35°17' E 139°41'0 0.0
2016-May-01 03:31N 35°17' E 139°41'0 0.0
2016-May-01 02:31N 35°17' E 139°41'0 0.0
2016-May-01 01:32N 35°17' E 139°41'2 2.4
2016-May-01 00:33N 35°19' E 139°39'2 2.4
2016-Apr-30 23:33N 35°17' E 139°41'0 0.0
2016-Apr-30 22:31N 35°17' E 139°41'0 0.0
2016-Apr-30 21:32N 35°17' E 139°41'0 0.0
2016-Apr-30 19:32N 35°17' E 139°41'0 0.0
2016-Apr-30 18:33N 35°17' E 139°41'0 0.0
2016-Apr-30 17:32N 35°17' E 139°41'0 0.0
2016-Apr-30 16:12N 35°17' E 139°41'0 0.0
2016-Apr-30 15:31N 35°17' E 139°41'0 0.0
2016-Apr-30 14:19N 35°17' E 139°41'0 0.0
2016-Apr-30 13:31N 35°17' E 139°41'0 0.0
2016-Apr-30 12:29N 35°17' E 139°41'0 0.0
2016-Apr-30 11:29N 35°17' E 139°41'0 0.0
2016-Apr-30 10:23N 35°17' E 139°41'0 0.0
2016-Apr-30 08:24N 35°17' E 139°41'0 0.0
2016-Apr-30 07:23N 35°17' E 139°41'0 0.0
2016-Apr-30 03:32N 35°17' E 139°41'1 0.8
2016-Apr-30 02:33N 35°18' E 139°41'9 9.3
2016-Apr-30 01:33N 35°25' E 139°49'2 2.3
2016-Apr-30 00:33N 35°27' E 139°50'1111.1
2016-Apr-29 23:33N 35°16' E 139°46'7 6.4
2016-Apr-29 22:31N 35°10' E 139°46'10 9.6
2016-Apr-29 21:31N 35°19' E 139°43'4 3.9
2016-Apr-29 20:33N 35°22' E 139°45'1211.5
2016-Apr-29 19:33N 35°11' E 139°47'4 0.4
2016-Apr-29 10:14N 35°13' E 139°43'3 4.7
2016-Apr-29 09:32N 35°15' E 139°46'9 9.7
2016-Apr-29 08:33N 35°23' E 139°40'6 1.2
2016-Apr-29 03:33N 35°17' E 139°43'2 2.1
2016-Apr-29 02:22N 35°16' E 139°46'1012.0
2016-Apr-29 01:33N 35°26' E 139°42'3 2.9
2016-Apr-29 00:33N 35°23' E 139°42'6 5.7
2016-Apr-28 23:33N 35°17' E 139°41'0 0.0
2016-Apr-28 22:33N 35°17' E 139°41'0 0.0
2016-Apr-28 21:28N 35°17' E 139°41'0 0.0
2016-Apr-28 20:25N 35°17' E 139°41'0 0.0
2016-Apr-28 07:30N 35°17' E 139°41'0 0.0
2016-Apr-28 06:07N 35°17' E 139°41'0 0.0
2016-Apr-28 05:30N 35°17' E 139°41'0 0.0
2016-Apr-28 03:23N 35°17' E 139°41'0 0.0
2016-Apr-28 02:29N 35°17' E 139°41'0 0.0
2016-Apr-28 01:24N 35°17' E 139°41'0 0.0
2016-Apr-27 23:29N 35°17' E 139°41'0 0.3
2016-Apr-27 22:33N 35°17' E 139°41'6 6.3
2016-Apr-27 21:33N 35°13' E 139°47'3 3.3
2016-Apr-27 20:33N 35°16' E 139°45'4 3.8
2016-Apr-27 19:33N 35°17' E 139°41'0 0.0
2016-Apr-27 18:32N 35°17' E 139°41'0 0.0
2016-Apr-27 17:33N 35°17' E 139°41'0 0.0
2016-Apr-27 16:34N 35°17' E 139°41'0 0.0
2016-Apr-27 15:34N 35°17' E 139°41'0 0.0
2016-Apr-27 14:33N 35°17' E 139°41'0 0.0
2016-Apr-27 13:33N 35°17' E 139°41'0 0.0
2016-Apr-27 12:33N 35°17' E 139°41'0 0.0
2016-Apr-27 11:33N 35°17' E 139°41'0 0.0
2016-Apr-27 10:31N 35°17' E 139°41'2 1.7
2016-Apr-27 09:33N 35°18' E 139°42'8 8.3
2016-Apr-27 08:33N 35°24' E 139°49'1211.5
2016-Apr-27 07:33N 35°32' E 139°60'5 4.7
2016-Apr-27 06:33N 35°33' E 140°06'18 6.0
2016-Apr-27 03:33N 35°24' E 139°46'1111.3
2016-Apr-27 02:33N 35°13' E 139°47'3 2.8
2016-Apr-27 01:32N 35°15' E 139°46'4 2.0
2016-Apr-26 23:17N 35°17' E 139°41'0 0.0
2016-Apr-26 22:31N 35°17' E 139°41'0 0.0
2016-Apr-26 21:32N 35°17' E 139°41'0 0.0
2016-Apr-26 20:31N 35°17' E 139°41'0 0.0
2016-Apr-26 18:26N 35°17' E 139°41'0 0.0
2016-Apr-26 11:31N 35°17' E 139°41'0 0.0
2016-Apr-26 10:24N 35°17' E 139°41'0 0.0
2016-Apr-26 09:32N 35°17' E 139°41'0 0.0
2016-Apr-26 08:33N 35°17' E 139°41'0 0.0
2016-Apr-26 07:33N 35°17' E 139°41'0 0.0
2016-Apr-26 06:31N 35°17' E 139°41'0 0.0
2016-Apr-26 05:33N 35°17' E 139°41'0 0.0
2016-Apr-26 04:33N 35°17' E 139°41'0 0.0
2016-Apr-26 03:32N 35°17' E 139°41'0 0.0
2016-Apr-26 02:33N 35°17' E 139°41'0 0.0
2016-Apr-26 01:33N 35°17' E 139°41'7 7.4
2016-Apr-26 00:33N 35°24' E 139°42'9 8.6
2016-Apr-25 23:33N 35°16' E 139°46'4 4.4
2016-Apr-25 22:32N 35°12' E 139°47'3 3.3
2016-Apr-25 21:33N 35°13' E 139°43'4 3.6
2016-Apr-25 20:33N 35°16' E 139°46'8 8.5
2016-Apr-25 19:33N 35°24' E 139°41'5 5.3
2016-Apr-25 18:33N 35°18' E 139°42'1 1.4
2016-Apr-25 17:29N 35°17' E 139°41'0 0.0
2016-Apr-25 10:27N 35°17' E 139°41'6 7.1
2016-Apr-25 09:33N 35°13' E 139°46'1212.5
2016-Apr-25 08:34N 35°25' E 139°43'2 2.4
2016-Apr-25 07:33N 35°27' E 139°42'  

Dump ship's entire track history